createdAt,value
2023-03-29T00:00:31.914Z,3.39
2023-03-29T00:01:35.238Z,3.37
2023-03-29T00:02:31.952Z,3.41
2023-03-29T00:03:31.893Z,3.39
2023-03-29T00:04:32.071Z,3.39
2023-03-29T00:05:31.843Z,3.37
2023-03-29T00:06:31.781Z,3.37
2023-03-29T00:07:31.764Z,3.41
2023-03-29T00:08:31.794Z,3.42
2023-03-29T00:09:31.774Z,3.44
2023-03-29T00:10:31.876Z,3.44
2023-03-29T00:11:31.735Z,3.44
2023-03-29T00:12:31.718Z,3.46
2023-03-29T00:13:31.660Z,3.44
2023-03-29T00:14:31.682Z,3.45
2023-03-29T00:15:31.666Z,3.50
2023-03-29T00:16:31.696Z,3.50
2023-03-29T00:17:31.669Z,3.49
2023-03-29T00:18:31.604Z,3.49
2023-03-29T00:19:31.581Z,3.46
2023-03-29T00:20:31.597Z,3.45
2023-03-29T00:21:31.678Z,3.50
2023-03-29T00:22:31.550Z,3.49
2023-03-29T00:23:31.621Z,3.49
2023-03-29T00:24:31.608Z,3.49
2023-03-29T00:25:31.680Z,3.52
2023-03-29T00:26:31.502Z,3.50
2023-03-29T00:27:31.550Z,3.50
2023-03-29T00:28:31.534Z,3.50
2023-03-29T00:29:31.491Z,3.49
2023-03-29T00:30:31.530Z,3.46
2023-03-29T00:31:31.488Z,3.46
2023-03-29T00:32:31.578Z,3.46
2023-03-29T00:33:31.480Z,3.49
2023-03-29T00:34:31.518Z,3.50
2023-03-29T00:35:31.450Z,3.50
2023-03-29T00:36:31.529Z,3.45
2023-03-29T00:37:31.424Z,3.45
2023-03-29T00:38:31.380Z,3.45
2023-03-29T00:39:31.397Z,3.46
2023-03-29T00:40:31.437Z,3.49
2023-03-29T00:41:31.371Z,3.45
2023-03-29T00:42:31.301Z,3.42
2023-03-29T00:43:31.360Z,3.39
2023-03-29T00:44:31.329Z,3.39
2023-03-29T00:45:31.292Z,3.41
2023-03-29T00:46:31.408Z,3.42
2023-03-29T00:47:31.320Z,3.45
2023-03-29T00:48:31.258Z,3.49
2023-03-29T00:49:31.277Z,3.49
2023-03-29T00:50:31.266Z,3.49
2023-03-29T00:51:31.274Z,3.49
2023-03-29T00:52:31.190Z,3.50
2023-03-29T00:53:31.217Z,3.46
2023-03-29T00:54:32.685Z,3.49
2023-03-29T00:55:31.228Z,3.45
2023-03-29T00:56:31.140Z,3.46
2023-03-29T00:57:31.216Z,3.46
2023-03-29T00:58:31.100Z,3.46
2023-03-29T00:59:31.150Z,3.49
2023-03-29T01:00:31.106Z,3.46
2023-03-29T01:01:31.132Z,3.46
2023-03-29T01:02:31.207Z,3.45
2023-03-29T01:03:31.280Z,3.46
2023-03-29T01:04:31.068Z,3.46
2023-03-29T01:05:31.140Z,3.50
2023-03-29T01:06:31.093Z,3.53
2023-03-29T01:07:31.220Z,3.56
2023-03-29T01:08:31.010Z,3.54
2023-03-29T01:09:31.003Z,3.56
2023-03-29T01:10:31.075Z,3.56
2023-03-29T01:11:30.960Z,3.54
2023-03-29T01:12:31.130Z,3.53
2023-03-29T01:13:30.965Z,3.52
2023-03-29T01:14:31.011Z,3.53
2023-03-29T01:15:30.927Z,3.52
2023-03-29T01:16:31.022Z,3.52
2023-03-29T01:17:30.950Z,3.54
2023-03-29T01:18:30.923Z,3.56
2023-03-29T01:19:30.964Z,3.59
2023-03-29T01:20:30.906Z,3.60
2023-03-29T01:21:30.819Z,3.60
2023-03-29T01:22:30.829Z,3.56
2023-03-29T01:23:30.842Z,3.57
2023-03-29T01:24:30.837Z,3.57
2023-03-29T01:25:30.869Z,3.59
2023-03-29T01:26:30.768Z,3.56
2023-03-29T01:27:30.793Z,3.57
2023-03-29T01:28:31.732Z,3.59
2023-03-29T01:29:30.829Z,3.57
2023-03-29T01:30:30.762Z,3.59
2023-03-29T01:31:30.729Z,3.59
2023-03-29T01:32:30.748Z,3.57
2023-03-29T01:33:30.763Z,3.57
2023-03-29T01:34:30.689Z,3.57
2023-03-29T01:35:30.880Z,3.57
2023-03-29T01:36:30.635Z,3.57
2023-03-29T01:37:30.652Z,3.57
2023-03-29T01:38:30.597Z,3.54
2023-03-29T01:39:30.667Z,3.56
2023-03-29T01:40:30.600Z,3.54
2023-03-29T01:41:30.585Z,3.53
2023-03-29T01:42:30.613Z,3.52
2023-03-29T01:43:30.574Z,3.50
2023-03-29T01:44:30.539Z,3.49
2023-03-29T01:45:30.593Z,3.50
2023-03-29T01:46:30.575Z,3.50
2023-03-29T01:47:30.583Z,3.52
2023-03-29T01:48:30.475Z,3.50
2023-03-29T01:49:30.512Z,3.50
2023-03-29T01:50:30.505Z,3.52
2023-03-29T01:51:30.522Z,3.52
2023-03-29T01:52:30.447Z,3.52
2023-03-29T01:53:30.439Z,3.52
2023-03-29T01:54:30.498Z,3.53
2023-03-29T01:55:30.487Z,3.53
2023-03-29T01:56:30.421Z,3.50
2023-03-29T01:57:30.381Z,3.52
2023-03-29T01:58:30.399Z,3.50
2023-03-29T01:59:30.376Z,3.50
2023-03-29T02:00:30.362Z,3.50
2023-03-29T02:01:30.572Z,3.50
2023-03-29T02:02:30.401Z,3.53
2023-03-29T02:03:30.543Z,3.53
2023-03-29T02:04:30.335Z,3.50
2023-03-29T02:05:30.325Z,3.52
2023-03-29T02:06:30.308Z,3.52
2023-03-29T02:07:30.329Z,3.53
2023-03-29T02:08:30.274Z,3.54
2023-03-29T02:09:30.296Z,3.54
2023-03-29T02:10:30.313Z,3.53
2023-03-29T02:11:30.243Z,3.53
2023-03-29T02:12:30.261Z,3.53
2023-03-29T02:13:30.199Z,3.54
2023-03-29T02:14:30.197Z,3.56
2023-03-29T02:15:30.237Z,3.53
2023-03-29T02:16:30.239Z,3.56
2023-03-29T02:17:30.212Z,3.54
2023-03-29T02:18:30.087Z,3.54
2023-03-29T02:19:30.116Z,3.54
2023-03-29T02:20:30.220Z,3.54
2023-03-29T02:21:30.083Z,3.53
2023-03-29T02:22:30.056Z,3.52
2023-03-29T02:23:30.069Z,3.50
2023-03-29T02:24:30.102Z,3.53
2023-03-29T02:25:30.130Z,3.50
2023-03-29T02:26:30.045Z,3.52
2023-03-29T02:27:30.010Z,3.53
2023-03-29T02:28:30.059Z,3.53
2023-03-29T02:29:30.005Z,3.50
2023-03-29T02:30:30.107Z,3.52
2023-03-29T02:31:29.976Z,3.49
2023-03-29T02:32:30.000Z,3.50
2023-03-29T02:33:30.005Z,3.49
2023-03-29T02:34:29.905Z,3.49
2023-03-29T02:35:29.964Z,3.46
2023-03-29T02:36:29.943Z,3.49
2023-03-29T02:37:29.890Z,3.52
2023-03-29T02:38:29.865Z,3.49
2023-03-29T02:39:30.133Z,3.49
2023-03-29T02:40:29.846Z,3.49
2023-03-29T02:41:29.883Z,3.49
2023-03-29T02:42:29.871Z,3.49
2023-03-29T02:43:29.857Z,3.49
2023-03-29T02:44:29.838Z,3.45
2023-03-29T02:45:29.883Z,3.46
2023-03-29T02:46:29.818Z,3.44
2023-03-29T02:47:29.953Z,3.44
2023-03-29T02:48:29.736Z,3.44
2023-03-29T02:49:29.755Z,3.42
2023-03-29T02:50:29.753Z,3.42
2023-03-29T02:51:29.768Z,3.41
2023-03-29T02:52:29.693Z,3.37
2023-03-29T02:53:29.775Z,3.37
2023-03-29T02:54:29.787Z,3.39
2023-03-29T02:55:29.662Z,3.34
2023-03-29T02:56:29.684Z,3.33
2023-03-29T02:57:29.673Z,3.30
2023-03-29T02:58:29.610Z,3.28
2023-03-29T02:59:29.914Z,3.28
2023-03-29T03:00:29.664Z,3.25
2023-03-29T03:01:29.747Z,3.22
2023-03-29T03:02:29.632Z,3.17
2023-03-29T03:03:29.697Z,3.17
2023-03-29T03:04:29.564Z,3.16
2023-03-29T03:05:29.562Z,3.17
2023-03-29T03:06:29.535Z,3.19
2023-03-29T03:07:29.515Z,3.17
2023-03-29T03:08:29.550Z,3.19
2023-03-29T03:09:29.480Z,3.16
2023-03-29T03:10:29.465Z,3.15
2023-03-29T03:11:29.455Z,3.13
2023-03-29T03:12:29.486Z,3.10
2023-03-29T03:13:29.433Z,3.08
2023-03-29T03:14:29.436Z,3.05
2023-03-29T03:15:29.701Z,3.10
2023-03-29T03:16:29.476Z,3.08
2023-03-29T03:17:29.436Z,3.08
2023-03-29T03:18:29.429Z,3.07
2023-03-29T03:19:29.453Z,3.07
2023-03-29T03:20:29.365Z,3.08
2023-03-29T03:21:29.410Z,3.07
2023-03-29T03:22:29.350Z,3.05
2023-03-29T03:23:29.366Z,3.10
2023-03-29T03:24:29.294Z,3.07
2023-03-29T03:25:29.343Z,3.08
2023-03-29T03:26:29.257Z,3.12
2023-03-29T03:27:29.260Z,3.10
2023-03-29T03:28:29.239Z,3.07
2023-03-29T03:29:29.253Z,3.07
2023-03-29T03:30:29.251Z,3.05
2023-03-29T03:31:29.259Z,3.05
2023-03-29T03:32:29.234Z,3.07
2023-03-29T03:33:29.268Z,3.07
2023-03-29T03:34:29.200Z,3.07
2023-03-29T03:35:29.197Z,3.08
2023-03-29T03:36:29.211Z,3.05
2023-03-29T03:37:29.138Z,3.07
2023-03-29T03:38:29.130Z,3.04
2023-03-29T03:39:29.133Z,3.04
2023-03-29T03:40:29.085Z,3.02
2023-03-29T03:41:29.208Z,3.04
2023-03-29T03:42:29.070Z,3.05
2023-03-29T03:43:29.129Z,3.07
2023-03-29T03:44:29.059Z,3.05
2023-03-29T03:45:29.216Z,3.05
2023-03-29T03:46:29.810Z,3.04
2023-03-29T03:47:29.120Z,3.04
2023-03-29T03:48:28.983Z,3.04
2023-03-29T03:49:29.059Z,3.04
2023-03-29T03:50:29.053Z,3.02
2023-03-29T03:51:28.967Z,3.02
2023-03-29T03:52:28.981Z,3.02
2023-03-29T03:53:28.949Z,3.04
2023-03-29T03:54:28.930Z,3.02
2023-03-29T03:55:28.960Z,3.01
2023-03-29T03:56:28.927Z,3.02
2023-03-29T03:57:28.877Z,3.02
2023-03-29T03:58:28.878Z,3.02
2023-03-29T03:59:28.891Z,3.01
2023-03-29T04:00:28.924Z,3.02
2023-03-29T04:01:28.893Z,3.02
2023-03-29T04:02:28.988Z,3.04
2023-03-29T04:03:28.962Z,3.04
2023-03-29T04:04:28.884Z,3.05
2023-03-29T04:05:28.836Z,3.05
2023-03-29T04:06:28.781Z,3.02
2023-03-29T04:07:28.884Z,3.05
2023-03-29T04:08:28.737Z,3.02
2023-03-29T04:09:28.736Z,3.02
2023-03-29T04:10:28.768Z,2.99
2023-03-29T04:11:28.730Z,2.98
2023-03-29T04:12:28.695Z,2.97
2023-03-29T04:13:28.735Z,2.94
2023-03-29T04:14:28.697Z,2.94
2023-03-29T04:15:28.711Z,2.95
2023-03-29T04:16:28.738Z,2.97
2023-03-29T04:17:28.656Z,2.98
2023-03-29T04:18:35.715Z,2.97
2023-03-29T04:19:31.330Z,2.94
2023-03-29T04:20:28.596Z,2.94
2023-03-29T04:21:30.368Z,2.90
2023-03-29T04:22:28.549Z,2.90
2023-03-29T04:23:28.510Z,2.87
2023-03-29T04:24:28.524Z,2.86
2023-03-29T04:25:28.513Z,2.87
2023-03-29T04:26:28.512Z,2.89
2023-03-29T04:27:28.470Z,2.89
2023-03-29T04:28:28.464Z,2.86
2023-03-29T04:29:28.450Z,2.84
2023-03-29T04:30:28.448Z,2.86
2023-03-29T04:31:28.450Z,2.84
2023-03-29T04:32:28.462Z,2.83
2023-03-29T04:33:28.392Z,2.81
2023-03-29T04:34:28.408Z,2.83
2023-03-29T04:35:28.380Z,2.83
2023-03-29T04:36:28.374Z,2.86
2023-03-29T04:37:28.350Z,2.87
2023-03-29T04:38:28.383Z,2.87
2023-03-29T04:39:28.304Z,2.87
2023-03-29T04:40:28.348Z,2.87
2023-03-29T04:41:28.294Z,2.87
2023-03-29T04:42:28.294Z,2.86
2023-03-29T04:43:28.267Z,2.86
2023-03-29T04:44:28.280Z,2.84
2023-03-29T04:45:28.281Z,2.84
2023-03-29T04:46:28.300Z,2.83
2023-03-29T04:47:28.282Z,2.83
2023-03-29T04:48:28.226Z,2.84
2023-03-29T04:49:28.183Z,2.83
2023-03-29T04:50:28.202Z,2.84
2023-03-29T04:51:28.178Z,2.84
2023-03-29T04:52:28.242Z,2.83
2023-03-29T04:53:28.151Z,2.84
2023-03-29T04:54:28.143Z,2.86
2023-03-29T04:55:28.184Z,2.84
2023-03-29T04:56:28.142Z,2.86
2023-03-29T04:57:28.123Z,2.84
2023-03-29T04:58:32.303Z,2.86
2023-03-29T04:59:28.072Z,2.86
2023-03-29T05:00:28.096Z,2.89
2023-03-29T05:01:28.137Z,2.90
2023-03-29T05:02:28.069Z,2.90
2023-03-29T05:03:28.018Z,2.92
2023-03-29T05:04:28.042Z,2.94
2023-03-29T05:05:28.004Z,2.95
2023-03-29T05:06:27.990Z,2.95
2023-03-29T05:07:27.969Z,2.97
2023-03-29T05:08:27.987Z,2.99
2023-03-29T05:09:27.947Z,3.01
2023-03-29T05:10:27.952Z,3.05
2023-03-29T05:11:27.937Z,3.07
2023-03-29T05:12:27.940Z,3.12
2023-03-29T05:13:28.268Z,3.12
2023-03-29T05:14:27.908Z,3.12
2023-03-29T05:15:27.928Z,3.07
2023-03-29T05:16:27.893Z,3.10
2023-03-29T05:17:27.895Z,3.12
2023-03-29T05:18:27.842Z,3.13
2023-03-29T05:19:27.851Z,3.13
2023-03-29T05:20:27.829Z,3.12
2023-03-29T05:21:27.792Z,3.12
2023-03-29T05:22:27.818Z,3.08
2023-03-29T05:23:27.783Z,3.08
2023-03-29T05:24:27.777Z,3.13
2023-03-29T05:25:27.757Z,3.17
2023-03-29T05:26:27.762Z,3.28
2023-03-29T05:27:27.765Z,3.46
2023-03-29T05:28:31.234Z,3.67
2023-03-29T05:29:27.703Z,3.92
2023-03-29T05:30:27.730Z,3.99
2023-03-29T05:31:27.694Z,3.93
2023-03-29T05:32:27.691Z,3.90
2023-03-29T05:33:27.676Z,3.98
2023-03-29T05:34:27.645Z,4.17
2023-03-29T05:35:27.692Z,4.07
2023-03-29T05:36:27.626Z,3.92
2023-03-29T05:37:27.627Z,3.82
2023-03-29T05:38:27.734Z,3.75
2023-03-29T05:39:27.591Z,3.70
2023-03-29T05:40:27.605Z,3.60
2023-03-29T05:41:27.552Z,3.54
2023-03-29T05:42:27.569Z,3.49
2023-03-29T05:43:27.561Z,3.49
2023-03-29T05:44:27.511Z,3.49
2023-03-29T05:45:27.600Z,3.52
2023-03-29T05:46:27.488Z,3.52
2023-03-29T05:47:27.488Z,3.53
2023-03-29T05:48:27.471Z,3.56
2023-03-29T05:49:27.461Z,3.57
2023-03-29T05:50:27.430Z,3.59
2023-03-29T05:51:27.430Z,3.60
2023-03-29T05:52:27.412Z,3.62
2023-03-29T05:53:27.409Z,3.96
2023-03-29T05:54:27.396Z,4.08
2023-03-29T05:55:27.426Z,4.20
2023-03-29T05:56:27.410Z,4.20
2023-03-29T05:57:27.390Z,4.17
2023-03-29T05:58:27.350Z,4.39
2023-03-29T05:59:27.322Z,4.50
2023-03-29T06:00:27.307Z,4.50
2023-03-29T06:01:27.319Z,4.38
2023-03-29T06:02:27.341Z,4.31
2023-03-29T06:03:27.640Z,4.18
2023-03-29T06:04:27.321Z,4.25
2023-03-29T06:05:27.243Z,4.21
2023-03-29T06:06:27.236Z,4.17
2023-03-29T06:07:27.257Z,4.11
2023-03-29T06:08:27.208Z,4.11
2023-03-29T06:09:27.175Z,4.08
2023-03-29T06:10:27.243Z,4.10
2023-03-29T06:11:27.182Z,4.14
2023-03-29T06:12:27.169Z,4.14
2023-03-29T06:13:27.156Z,4.21
2023-03-29T06:14:27.138Z,4.24
2023-03-29T06:15:27.127Z,4.32
2023-03-29T06:16:27.238Z,4.49
2023-03-29T06:17:27.118Z,4.50
2023-03-29T06:18:27.089Z,4.59
2023-03-29T06:19:27.083Z,4.87
2023-03-29T06:20:28.021Z,5.20
2023-03-29T06:21:27.069Z,5.69
2023-03-29T06:22:27.034Z,5.87
2023-03-29T06:23:27.103Z,5.74
2023-03-29T06:24:27.022Z,5.38
2023-03-29T06:25:26.994Z,5.19
2023-03-29T06:26:27.058Z,5.12
2023-03-29T06:27:26.975Z,5.52
2023-03-29T06:28:26.967Z,5.49
2023-03-29T06:29:26.957Z,5.65
2023-03-29T06:30:27.050Z,5.52
2023-03-29T06:31:26.990Z,5.38
2023-03-29T06:32:26.930Z,5.19
2023-03-29T06:33:26.975Z,5.01
2023-03-29T06:34:27.119Z,4.86
2023-03-29T06:35:26.891Z,4.79
2023-03-29T06:36:26.942Z,4.68
2023-03-29T06:37:26.865Z,4.61
2023-03-29T06:38:26.880Z,4.59
2023-03-29T06:39:26.824Z,4.56
2023-03-29T06:40:26.840Z,4.56
2023-03-29T06:41:26.832Z,4.50
2023-03-29T06:42:26.789Z,4.50
2023-03-29T06:43:26.848Z,4.50
2023-03-29T06:44:26.767Z,4.44
2023-03-29T06:45:28.823Z,4.44
2023-03-29T06:46:26.839Z,4.47
2023-03-29T06:47:26.747Z,4.50
2023-03-29T06:48:26.778Z,4.54
2023-03-29T06:49:26.686Z,4.61
2023-03-29T06:50:26.722Z,4.61
2023-03-29T06:51:26.665Z,4.62
2023-03-29T06:52:26.671Z,4.64
2023-03-29T06:53:26.711Z,4.68
2023-03-29T06:54:26.666Z,4.74
2023-03-29T06:55:26.609Z,4.74
2023-03-29T06:56:26.637Z,4.69
2023-03-29T06:57:26.631Z,4.65
2023-03-29T06:58:26.677Z,4.62
2023-03-29T06:59:26.563Z,4.62
2023-03-29T07:00:26.619Z,4.71
2023-03-29T07:01:26.559Z,4.71
2023-03-29T07:02:26.826Z,4.69
2023-03-29T07:03:26.522Z,4.72
2023-03-29T07:04:26.577Z,4.69
2023-03-29T07:05:26.487Z,4.71
2023-03-29T07:06:26.497Z,4.72
2023-03-29T07:07:26.471Z,4.68
2023-03-29T07:08:26.469Z,4.64
2023-03-29T07:09:26.714Z,4.65
2023-03-29T07:10:26.480Z,4.64
2023-03-29T07:11:26.405Z,4.69
2023-03-29T07:12:26.453Z,4.71
2023-03-29T07:13:26.389Z,4.74
2023-03-29T07:14:26.380Z,4.67
2023-03-29T07:15:26.379Z,4.64
2023-03-29T07:16:26.604Z,4.67
2023-03-29T07:17:26.425Z,4.75
2023-03-29T07:18:26.349Z,4.84
2023-03-29T07:19:26.321Z,4.90
2023-03-29T07:20:26.343Z,4.90
2023-03-29T07:21:26.288Z,4.91
2023-03-29T07:22:26.275Z,4.96
2023-03-29T07:23:26.255Z,5.05
2023-03-29T07:24:26.260Z,5.11
2023-03-29T07:25:26.255Z,5.12
2023-03-29T07:26:28.286Z,5.11
2023-03-29T07:27:26.236Z,5.15
2023-03-29T07:28:26.200Z,5.17
2023-03-29T07:29:26.187Z,5.15
2023-03-29T07:30:26.259Z,5.20
2023-03-29T07:31:26.192Z,5.26
2023-03-29T07:32:26.837Z,5.30
2023-03-29T07:33:26.313Z,5.35
2023-03-29T07:34:26.180Z,5.40
2023-03-29T07:35:26.123Z,5.38
2023-03-29T07:36:26.106Z,5.29
2023-03-29T07:37:26.148Z,5.19
2023-03-29T07:38:26.106Z,5.12
2023-03-29T07:39:26.067Z,5.15
2023-03-29T07:40:26.410Z,5.20
2023-03-29T07:41:26.050Z,5.22
2023-03-29T07:42:26.101Z,5.23
2023-03-29T07:43:26.992Z,5.26
2023-03-29T07:44:26.077Z,5.27
2023-03-29T07:45:26.563Z,5.33
2023-03-29T07:46:26.091Z,5.41
2023-03-29T07:47:25.993Z,5.48
2023-03-29T07:48:25.945Z,5.52
2023-03-29T07:49:25.938Z,5.58
2023-03-29T07:50:26.086Z,5.66
2023-03-29T07:51:25.920Z,5.66
2023-03-29T07:52:25.923Z,5.75
2023-03-29T07:53:25.878Z,5.81
2023-03-29T07:54:25.902Z,5.80
2023-03-29T07:55:25.870Z,5.67
2023-03-29T07:56:25.887Z,5.73
2023-03-29T07:57:25.911Z,5.73
2023-03-29T07:58:25.863Z,5.75
2023-03-29T07:59:25.904Z,5.81
2023-03-29T08:00:25.868Z,5.92
2023-03-29T08:01:25.862Z,5.99
2023-03-29T08:02:25.854Z,6.08
2023-03-29T08:03:25.824Z,6.17
2023-03-29T08:04:25.821Z,6.19
2023-03-29T08:05:40.221Z,6.21
2023-03-29T08:06:26.745Z,6.21
2023-03-29T08:07:25.761Z,6.24
2023-03-29T08:08:25.843Z,6.24
2023-03-29T08:09:25.700Z,6.28
2023-03-29T08:10:25.701Z,6.30
2023-03-29T08:11:25.670Z,6.28
2023-03-29T08:12:25.656Z,6.35
2023-03-29T08:13:25.625Z,6.42
2023-03-29T08:14:25.666Z,6.38
2023-03-29T08:15:25.599Z,6.39
2023-03-29T08:16:25.667Z,6.43
2023-03-29T08:17:25.611Z,6.46
2023-03-29T08:18:25.586Z,6.51
2023-03-29T08:19:25.604Z,6.53
2023-03-29T08:20:25.552Z,6.55
2023-03-29T08:21:25.535Z,6.61
2023-03-29T08:22:25.571Z,6.57
2023-03-29T08:23:25.516Z,6.51
2023-03-29T08:24:25.528Z,6.53
2023-03-29T08:25:25.526Z,6.53
2023-03-29T08:26:25.619Z,6.55
2023-03-29T08:27:25.499Z,6.54
2023-03-29T08:28:25.481Z,6.55
2023-03-29T08:29:25.463Z,6.61
2023-03-29T08:30:25.496Z,6.68
2023-03-29T08:31:25.475Z,6.69
2023-03-29T08:32:25.468Z,6.73
2023-03-29T08:33:25.384Z,6.76
2023-03-29T08:34:25.393Z,6.78
2023-03-29T08:35:25.355Z,6.75
2023-03-29T08:36:25.344Z,6.75
2023-03-29T08:37:25.343Z,6.76
2023-03-29T08:38:25.318Z,6.76
2023-03-29T08:39:25.304Z,6.76
2023-03-29T08:40:25.295Z,6.79
2023-03-29T08:41:25.304Z,6.87
2023-03-29T08:42:25.263Z,6.97
2023-03-29T08:43:25.284Z,7.05
2023-03-29T08:44:25.241Z,7.18
2023-03-29T08:45:25.229Z,7.24
2023-03-29T08:46:29.033Z,7.27
2023-03-29T08:47:26.244Z,7.33
2023-03-29T08:48:25.198Z,7.34
2023-03-29T08:49:25.173Z,7.33
2023-03-29T08:50:25.156Z,7.24
2023-03-29T08:51:25.171Z,7.23
2023-03-29T08:52:25.156Z,7.27
2023-03-29T08:53:25.120Z,7.36
2023-03-29T08:54:25.130Z,7.41
2023-03-29T08:55:25.150Z,7.45
2023-03-29T08:56:25.142Z,7.47
2023-03-29T08:57:25.145Z,7.52
2023-03-29T08:58:25.059Z,7.66
2023-03-29T08:59:25.042Z,7.73
2023-03-29T09:00:25.022Z,7.74
2023-03-29T09:01:25.139Z,7.74
2023-03-29T09:02:25.068Z,7.79
2023-03-29T09:03:25.156Z,7.70
2023-03-29T09:04:25.188Z,7.73
2023-03-29T09:05:25.029Z,7.86
2023-03-29T09:06:25.025Z,8.02
2023-03-29T09:07:26.655Z,8.14
2023-03-29T09:08:24.939Z,8.18
2023-03-29T09:09:24.975Z,8.24
2023-03-29T09:10:25.017Z,8.31
2023-03-29T09:11:24.905Z,8.43
2023-03-29T09:12:24.859Z,8.54
2023-03-29T09:13:24.936Z,8.63
2023-03-29T09:14:24.875Z,8.61
2023-03-29T09:15:24.908Z,8.60
2023-03-29T09:16:24.832Z,8.67
2023-03-29T09:17:24.888Z,8.71
2023-03-29T09:18:24.831Z,8.58
2023-03-29T09:19:24.784Z,8.57
2023-03-29T09:20:24.776Z,8.54
2023-03-29T09:21:24.779Z,8.54
2023-03-29T09:22:24.761Z,8.55
2023-03-29T09:23:24.764Z,8.57
2023-03-29T09:24:24.717Z,8.55
2023-03-29T09:25:25.048Z,8.60
2023-03-29T09:26:24.734Z,8.57
2023-03-29T09:27:24.681Z,8.61
2023-03-29T09:28:24.688Z,8.63
2023-03-29T09:29:24.679Z,8.65
2023-03-29T09:30:24.676Z,8.68
2023-03-29T09:31:24.643Z,8.79
2023-03-29T09:32:24.942Z,8.88
2023-03-29T09:33:24.693Z,8.93
2023-03-29T09:34:24.603Z,8.98
2023-03-29T09:35:24.606Z,8.97
2023-03-29T09:36:24.584Z,8.96
2023-03-29T09:37:24.558Z,9.00
2023-03-29T09:38:24.540Z,8.96
2023-03-29T09:39:24.526Z,8.96
2023-03-29T09:40:24.550Z,8.93
2023-03-29T09:41:24.527Z,8.94
2023-03-29T09:42:24.684Z,8.86
2023-03-29T09:43:24.467Z,8.91
2023-03-29T09:44:30.948Z,8.89
2023-03-29T09:45:25.516Z,8.97
2023-03-29T09:46:24.468Z,9.08
2023-03-29T09:47:24.442Z,9.15
2023-03-29T09:48:24.409Z,9.26
2023-03-29T09:49:24.404Z,9.34
2023-03-29T09:50:31.461Z,9.42
2023-03-29T09:51:25.373Z,9.44
2023-03-29T09:52:24.373Z,9.52
2023-03-29T09:53:24.342Z,9.49
2023-03-29T09:54:24.336Z,9.49
2023-03-29T09:55:24.425Z,9.52
2023-03-29T09:56:24.593Z,9.65
2023-03-29T09:57:24.355Z,9.67
2023-03-29T09:58:24.280Z,9.58
2023-03-29T09:59:24.261Z,9.52
2023-03-29T10:00:24.256Z,9.56
2023-03-29T10:01:24.282Z,9.50
2023-03-29T10:02:24.265Z,9.44
2023-03-29T10:03:24.226Z,9.42
2023-03-29T10:04:24.256Z,9.45
2023-03-29T10:05:24.245Z,9.35
2023-03-29T10:06:24.180Z,9.35
2023-03-29T10:07:24.183Z,9.45
2023-03-29T10:08:24.189Z,9.59
2023-03-29T10:09:24.155Z,9.70
2023-03-29T10:10:24.151Z,9.75
2023-03-29T10:11:24.127Z,9.71
2023-03-29T10:12:24.114Z,9.75
2023-03-29T10:13:24.098Z,9.89
2023-03-29T10:14:24.097Z,9.95
2023-03-29T10:15:29.756Z,9.93
2023-03-29T10:16:25.053Z,9.99
2023-03-29T10:17:24.083Z,10.09
2023-03-29T10:18:24.056Z,10.14
2023-03-29T10:19:24.050Z,10.18
2023-03-29T10:20:31.000Z,10.18
2023-03-29T10:21:25.675Z,10.26
2023-03-29T10:22:23.998Z,10.18
2023-03-29T10:23:23.970Z,10.06
2023-03-29T10:24:23.950Z,9.91
2023-03-29T10:25:24.076Z,9.95
2023-03-29T10:26:23.916Z,10.07
2023-03-29T10:27:23.942Z,10.22
2023-03-29T10:28:23.888Z,10.25
2023-03-29T10:29:23.893Z,10.36
2023-03-29T10:30:23.875Z,10.38
2023-03-29T10:31:23.914Z,10.44
2023-03-29T10:32:23.919Z,10.47
2023-03-29T10:33:23.865Z,10.43
2023-03-29T10:34:23.986Z,10.36
2023-03-29T10:35:23.814Z,10.35
2023-03-29T10:36:23.793Z,10.51
2023-03-29T10:37:23.859Z,10.49
2023-03-29T10:38:24.030Z,10.46
2023-03-29T10:39:24.115Z,10.46
2023-03-29T10:40:23.732Z,10.32
2023-03-29T10:41:23.730Z,10.10
2023-03-29T10:42:23.782Z,10.02
2023-03-29T10:43:23.725Z,10.02
2023-03-29T10:44:23.694Z,10.09
2023-03-29T10:45:23.668Z,10.18
2023-03-29T10:46:23.724Z,10.25
2023-03-29T10:47:23.710Z,10.29
2023-03-29T10:48:23.642Z,10.36
2023-03-29T10:49:23.624Z,10.38
2023-03-29T10:50:23.596Z,10.38
2023-03-29T10:51:23.698Z,10.38
2023-03-29T10:52:23.637Z,10.29
2023-03-29T10:53:23.602Z,10.24
2023-03-29T10:54:23.700Z,10.26
2023-03-29T10:55:23.842Z,10.25
2023-03-29T10:56:23.635Z,10.26
2023-03-29T10:57:23.659Z,10.31
2023-03-29T10:58:23.558Z,10.36
2023-03-29T10:59:23.496Z,10.31
2023-03-29T11:00:23.486Z,10.29
2023-03-29T11:01:23.499Z,10.32
2023-03-29T11:02:23.530Z,10.24
2023-03-29T11:03:23.492Z,10.26
2023-03-29T11:04:23.424Z,10.39
2023-03-29T11:05:23.424Z,10.47
2023-03-29T11:06:23.420Z,10.46
2023-03-29T11:07:23.423Z,10.46
2023-03-29T11:08:23.368Z,10.51
2023-03-29T11:09:23.384Z,10.51
2023-03-29T11:10:23.346Z,10.55
2023-03-29T11:11:23.373Z,10.66
2023-03-29T11:12:23.357Z,10.75
2023-03-29T11:13:23.340Z,10.84
2023-03-29T11:14:23.315Z,10.88
2023-03-29T11:15:23.290Z,10.95
2023-03-29T11:16:23.333Z,10.94
2023-03-29T11:17:23.315Z,10.87
2023-03-29T11:18:23.242Z,10.81
2023-03-29T11:19:23.231Z,10.76
2023-03-29T11:20:23.217Z,10.72
2023-03-29T11:21:23.239Z,10.75
2023-03-29T11:22:23.212Z,10.75
2023-03-29T11:23:23.253Z,10.68
2023-03-29T11:24:23.172Z,10.68
2023-03-29T11:25:23.172Z,10.69
2023-03-29T11:26:23.183Z,10.76
2023-03-29T11:27:23.162Z,10.81
2023-03-29T11:28:23.118Z,10.83
2023-03-29T11:29:23.125Z,10.72
2023-03-29T11:30:23.137Z,10.62
2023-03-29T11:31:23.167Z,10.54
2023-03-29T11:32:23.140Z,10.44
2023-03-29T11:33:23.053Z,10.54
2023-03-29T11:34:23.081Z,10.68
2023-03-29T11:35:23.050Z,10.78
2023-03-29T11:36:23.014Z,10.88
2023-03-29T11:37:23.035Z,11.02
2023-03-29T11:38:22.997Z,11.08
2023-03-29T11:39:22.978Z,11.12
2023-03-29T11:40:22.952Z,11.21
2023-03-29T11:41:22.947Z,11.30
2023-03-29T11:42:22.990Z,11.44
2023-03-29T11:43:22.922Z,11.46
2023-03-29T11:44:22.898Z,11.39
2023-03-29T11:45:22.892Z,11.24
2023-03-29T11:46:22.947Z,11.24
2023-03-29T11:47:23.129Z,11.42
2023-03-29T11:48:22.854Z,11.57
2023-03-29T11:49:22.884Z,11.69
2023-03-29T11:50:23.219Z,11.74
2023-03-29T11:51:22.878Z,11.69
2023-03-29T11:52:22.842Z,11.69
2023-03-29T11:53:22.805Z,11.69
2023-03-29T11:54:22.778Z,11.57
2023-03-29T11:55:22.792Z,11.44
2023-03-29T11:56:22.784Z,11.44
2023-03-29T11:57:22.849Z,11.48
2023-03-29T11:58:22.727Z,11.60
2023-03-29T11:59:22.731Z,11.66
2023-03-29T12:00:22.709Z,11.66
2023-03-29T12:01:22.756Z,11.53
2023-03-29T12:02:22.787Z,11.31
2023-03-29T12:03:22.723Z,11.23
2023-03-29T12:04:22.944Z,11.21
2023-03-29T12:05:22.671Z,11.16
2023-03-29T12:06:22.637Z,11.21
2023-03-29T12:07:22.637Z,11.33
2023-03-29T12:08:22.613Z,11.39
2023-03-29T12:09:22.607Z,11.45
2023-03-29T12:10:22.566Z,11.44
2023-03-29T12:11:22.575Z,11.44
2023-03-29T12:12:22.550Z,11.51
2023-03-29T12:13:22.550Z,11.57
2023-03-29T12:14:22.517Z,11.60
2023-03-29T12:15:22.520Z,11.64
2023-03-29T12:16:22.555Z,11.70
2023-03-29T12:17:22.548Z,11.70
2023-03-29T12:18:22.636Z,11.59
2023-03-29T12:19:22.456Z,11.27
2023-03-29T12:20:22.481Z,11.24
2023-03-29T12:21:22.442Z,11.28
2023-03-29T12:22:22.459Z,11.33
2023-03-29T12:23:22.515Z,11.24
2023-03-29T12:24:22.386Z,11.26
2023-03-29T12:25:23.316Z,11.27
2023-03-29T12:26:22.347Z,11.33
2023-03-29T12:27:22.397Z,11.35
2023-03-29T12:28:22.351Z,11.31
2023-03-29T12:29:22.368Z,11.33
2023-03-29T12:30:22.317Z,11.24
2023-03-29T12:31:22.339Z,11.19
2023-03-29T12:32:22.353Z,11.06
2023-03-29T12:33:22.291Z,11.03
2023-03-29T12:34:22.271Z,11.05
2023-03-29T12:35:22.288Z,11.12
2023-03-29T12:36:22.373Z,11.13
2023-03-29T12:37:22.351Z,11.21
2023-03-29T12:38:22.209Z,11.19
2023-03-29T12:39:22.204Z,11.24
2023-03-29T12:40:22.170Z,11.27
2023-03-29T12:41:22.206Z,11.35
2023-03-29T12:42:22.169Z,11.31
2023-03-29T12:43:22.166Z,11.23
2023-03-29T12:44:22.153Z,11.16
2023-03-29T12:45:22.137Z,11.19
2023-03-29T12:46:22.102Z,11.21
2023-03-29T12:47:22.124Z,11.11
2023-03-29T12:48:22.078Z,11.20
2023-03-29T12:49:22.093Z,11.28
2023-03-29T12:50:22.065Z,11.35
2023-03-29T12:51:22.051Z,11.35
2023-03-29T12:52:22.067Z,11.30
2023-03-29T12:53:22.020Z,11.33
2023-03-29T12:54:22.073Z,11.36
2023-03-29T12:55:21.982Z,11.26
2023-03-29T12:56:21.984Z,11.27
2023-03-29T12:57:22.118Z,11.30
2023-03-29T12:58:21.952Z,11.41
2023-03-29T12:59:21.930Z,11.49
2023-03-29T13:00:21.993Z,11.59
2023-03-29T13:01:21.974Z,11.66
2023-03-29T13:02:22.040Z,11.66
2023-03-29T13:03:21.912Z,11.66
2023-03-29T13:04:21.887Z,11.63
2023-03-29T13:05:21.933Z,11.72
2023-03-29T13:06:21.865Z,11.82
2023-03-29T13:07:21.862Z,11.84
2023-03-29T13:08:21.824Z,11.88
2023-03-29T13:09:21.812Z,11.72
2023-03-29T13:10:21.800Z,11.66
2023-03-29T13:11:21.802Z,11.54
2023-03-29T13:12:21.792Z,11.59